You are not logged in, Click here to log in
機場資訊:LPPR Welcome to Taiwan Airways 台灣虛擬航空
ICAO: LPPR Country: Porto
Latitude: 41.2481 Longitude: -8.68139
Total Arrivals: 1 Total Departures: 1
Latest Arrival: TP1710 (LPMA-LPPR)Arthur. Kung Latest Departure: U21458 (LPPR-LSGG)Arthur. Kung
Scenery: http://en.wikipedia.org/wiki/Ota_Airport
METAR : LPPR 141830Z 21003KT 180V330 9999 FEW016 FEW018CB 12/10 Q1018

Francisco de Sá Carneiro Airport